sensor_id;sensor_type;location;lat;lon;timestamp;pressure;altitude;pressure_sealevel;temperature;humidity
21276;BME280;36472;52.170;20.884;2024-03-06T00:00:48;100739.69;;;7.40;100.00
21276;BME280;36472;52.170;20.884;2024-03-06T00:03:38;100739.78;;;7.39;100.00
21276;BME280;36472;52.170;20.884;2024-03-06T00:06:08;100737.53;;;7.31;100.00
21276;BME280;36472;52.170;20.884;2024-03-06T00:08:37;100738.44;;;7.30;100.00
21276;BME280;36472;52.170;20.884;2024-03-06T00:11:09;100737.59;;;7.29;100.00
21276;BME280;36472;52.170;20.884;2024-03-06T00:13:38;100736.88;;;7.26;100.00
21276;BME280;36472;52.170;20.884;2024-03-06T00:16:07;100744.88;;;7.23;100.00
21276;BME280;36472;52.170;20.884;2024-03-06T00:18:37;100743.94;;;7.24;100.00
21276;BME280;36472;52.170;20.884;2024-03-06T00:21:08;100742.03;;;7.27;100.00
21276;BME280;36472;52.170;20.884;2024-03-06T00:23:37;100746.22;;;7.32;100.00
21276;BME280;36472;52.170;20.884;2024-03-06T00:26:06;100737.53;;;7.31;100.00
21276;BME280;36472;52.170;20.884;2024-03-06T00:28:35;100741.53;;;7.38;100.00
21276;BME280;36472;52.170;20.884;2024-03-06T00:31:05;100743.22;;;7.39;100.00
21276;BME280;36472;52.170;20.884;2024-03-06T00:33:34;100752.66;;;7.43;100.00
21276;BME280;36472;52.170;20.884;2024-03-06T00:36:06;100747.28;;;7.46;100.00
21276;BME280;36472;52.170;20.884;2024-03-06T00:38:35;100748.94;;;7.47;100.00
21276;BME280;36472;52.170;20.884;2024-03-06T00:41:04;100753.28;;;7.48;100.00
21276;BME280;36472;52.170;20.884;2024-03-06T00:43:34;100750.53;;;7.52;100.00
21276;BME280;36472;52.170;20.884;2024-03-06T00:46:03;100749.03;;;7.46;100.00
21276;BME280;36472;52.170;20.884;2024-03-06T00:48:32;100753.28;;;7.48;100.00
21276;BME280;36472;52.170;20.884;2024-03-06T00:51:04;100748.03;;;7.48;100.00
21276;BME280;36472;52.170;20.884;2024-03-06T00:53:36;100757.44;;;7.53;100.00
21276;BME280;36472;52.170;20.884;2024-03-06T00:56:07;100744.72;;;7.45;100.00
21276;BME280;36472;52.170;20.884;2024-03-06T00:58:36;100750.66;;;7.48;100.00
21276;BME280;36472;52.170;20.884;2024-03-06T01:01:05;100746.41;;;7.46;100.00
21276;BME280;36472;52.170;20.884;2024-03-06T01:03:37;100752.56;;;7.45;100.00
21276;BME280;36472;52.170;20.884;2024-03-06T01:06:08;100753.34;;;7.47;100.00
21276;BME280;36472;52.170;20.884;2024-03-06T01:08:37;100755.13;;;7.46;100.00
21276;BME280;36472;52.170;20.884;2024-03-06T01:11:06;100754.94;;;7.49;100.00
21276;BME280;36472;52.170;20.884;2024-03-06T01:13:35;100760.19;;;7.49;100.00
21276;BME280;36472;52.170;20.884;2024-03-06T01:16:06;100760.34;;;7.46;100.00
21276;BME280;36472;52.170;20.884;2024-03-06T01:23:08;100758.44;;;7.50;100.00
21276;BME280;36472;52.170;20.884;2024-03-06T01:25:36;100759.00;;;7.57;100.00
21276;BME280;36472;52.170;20.884;2024-03-06T01:28:06;100760.53;;;7.61;100.00
21276;BME280;36472;52.170;20.884;2024-03-06T01:30:35;100755.16;;;7.64;100.00
21276;BME280;36472;52.170;20.884;2024-03-06T01:33:06;100757.72;;;7.65;100.00
21276;BME280;36472;52.170;20.884;2024-03-06T01:35:35;100763.50;;;7.72;100.00
21276;BME280;36472;52.170;20.884;2024-03-06T01:38:04;100760.16;;;7.68;100.00
21276;BME280;36472;52.170;20.884;2024-03-06T01:40:35;100772.19;;;7.73;100.00
21276;BME280;36472;52.170;20.884;2024-03-06T01:43:04;100768.56;;;7.75;100.00
21276;BME280;36472;52.170;20.884;2024-03-06T01:45:33;100767.44;;;7.81;100.00
21276;BME280;36472;52.170;20.884;2024-03-06T01:48:03;100769.19;;;7.80;100.00
21276;BME280;36472;52.170;20.884;2024-03-06T01:50:34;100770.69;;;7.86;100.00
21276;BME280;36472;52.170;20.884;2024-03-06T01:53:04;100773.25;;;7.88;100.00
21276;BME280;36472;52.170;20.884;2024-03-06T01:55:35;100773.63;;;7.97;100.00
21276;BME280;36472;52.170;20.884;2024-03-06T01:58:05;100759.47;;;8.01;99.91
21276;BME280;36472;52.170;20.884;2024-03-06T02:00:35;100761.09;;;8.04;99.60
21276;BME280;36472;52.170;20.884;2024-03-06T02:03:05;100770.50;;;8.08;99.64
21276;BME280;36472;52.170;20.884;2024-03-06T02:05:35;100768.66;;;8.10;99.58
21276;BME280;36472;52.170;20.884;2024-03-06T02:08:06;100771.13;;;8.13;99.59
21276;BME280;36472;52.170;20.884;2024-03-06T02:10:36;100772.66;;;8.17;99.56
21276;BME280;36472;52.170;20.884;2024-03-06T02:13:06;100777.69;;;8.22;99.35
21276;BME280;36472;52.170;20.884;2024-03-06T02:15:35;100775.81;;;8.24;98.66
21276;BME280;36472;52.170;20.884;2024-03-06T02:18:08;100774.91;;;8.25;98.79
21276;BME280;36472;52.170;20.884;2024-03-06T02:20:40;100778.22;;;8.29;98.66
21276;BME280;36472;52.170;20.884;2024-03-06T02:23:09;100776.72;;;8.23;98.61
21276;BME280;36472;52.170;20.884;2024-03-06T02:25:38;100779.44;;;8.21;98.91
21276;BME280;36472;52.170;20.884;2024-03-06T02:28:07;100776.13;;;8.18;99.66
21276;BME280;36472;52.170;20.884;2024-03-06T02:30:36;100780.44;;;8.19;100.00
21276;BME280;36472;52.170;20.884;2024-03-06T02:33:06;100778.59;;;8.21;100.00
21276;BME280;36472;52.170;20.884;2024-03-06T02:35:38;100773.97;;;8.26;100.00
21276;BME280;36472;52.170;20.884;2024-03-06T02:38:08;100770.44;;;8.27;100.00
21276;BME280;36472;52.170;20.884;2024-03-06T02:40:42;100770.38;;;8.29;100.00
21276;BME280;36472;52.170;20.884;2024-03-06T02:43:12;100775.28;;;8.35;100.00
21276;BME280;36472;52.170;20.884;2024-03-06T02:45:40;100773.75;;;8.31;100.00
21276;BME280;36472;52.170;20.884;2024-03-06T02:48:10;100774.59;;;8.31;100.00
21276;BME280;36472;52.170;20.884;2024-03-06T02:50:41;100778.38;;;8.26;100.00
21276;BME280;36472;52.170;20.884;2024-03-06T02:53:10;100776.38;;;8.31;100.00
21276;BME280;36472;52.170;20.884;2024-03-06T02:55:40;100774.81;;;8.27;100.00
21276;BME280;36472;52.170;20.884;2024-03-06T02:58:09;100777.22;;;8.31;100.00
21276;BME280;36472;52.170;20.884;2024-03-06T03:00:39;100775.34;;;8.33;99.99
21276;BME280;36472;52.170;20.884;2024-03-06T03:03:09;100781.47;;;8.34;100.00
21276;BME280;36472;52.170;20.884;2024-03-06T03:05:41;100782.16;;;8.37;99.78
21276;BME280;36472;52.170;20.884;2024-03-06T03:08:10;100784.78;;;8.37;99.45
21276;BME280;36472;52.170;20.884;2024-03-06T03:10:39;100786.44;;;8.38;99.21
21276;BME280;36472;52.170;20.884;2024-03-06T03:13:08;100786.38;;;8.40;99.21
21276;BME280;36472;52.170;20.884;2024-03-06T03:15:38;100791.53;;;8.41;99.01
21276;BME280;36472;52.170;20.884;2024-03-06T03:18:08;100791.63;;;8.40;98.74
21276;BME280;36472;52.170;20.884;2024-03-06T03:20:41;100799.47;;;8.40;98.53
21276;BME280;36472;52.170;20.884;2024-03-06T03:23:11;100804.63;;;8.41;98.35
21276;BME280;36472;52.170;20.884;2024-03-06T03:25:43;100795.53;;;8.14;98.16
21276;BME280;36472;52.170;20.884;2024-03-06T03:28:12;100790.84;;;8.20;99.06
21276;BME280;36472;52.170;20.884;2024-03-06T03:30:43;100797.59;;;8.24;98.76
21276;BME280;36472;52.170;20.884;2024-03-06T03:33:13;100801.00;;;8.27;98.65
21276;BME280;36472;52.170;20.884;2024-03-06T03:35:43;100798.38;;;8.27;98.73
21276;BME280;36472;52.170;20.884;2024-03-06T03:38:13;100794.44;;;8.18;98.33
21276;BME280;36472;52.170;20.884;2024-03-06T03:40:41;100808.22;;;8.21;98.38
21276;BME280;36472;52.170;20.884;2024-03-06T03:43:11;100802.28;;;8.18;98.42
21276;BME280;36472;52.170;20.884;2024-03-06T03:45:40;100799.94;;;8.13;98.55
21276;BME280;36472;52.170;20.884;2024-03-06T03:48:09;100804.22;;;8.14;98.40
21276;BME280;36472;52.170;20.884;2024-03-06T03:50:38;100805.16;;;8.13;98.44
21276;BME280;36472;52.170;20.884;2024-03-06T03:53:08;100809.53;;;8.13;98.40
21276;BME280;36472;52.170;20.884;2024-03-06T03:55:37;100804.75;;;8.03;98.91
21276;BME280;36472;52.170;20.884;2024-03-06T03:58:07;100808.06;;;8.07;98.61
21276;BME280;36472;52.170;20.884;2024-03-06T04:00:35;100812.94;;;8.15;98.60
21276;BME280;36472;52.170;20.884;2024-03-06T04:03:06;100811.22;;;8.14;98.60
21276;BME280;36472;52.170;20.884;2024-03-06T04:05:35;100815.06;;;8.07;98.54
21276;BME280;36472;52.170;20.884;2024-03-06T04:08:05;100817.44;;;8.11;98.26
21276;BME280;36472;52.170;20.884;2024-03-06T04:10:35;100822.16;;;8.04;98.39
21276;BME280;36472;52.170;20.884;2024-03-06T04:13:08;100815.72;;;8.12;98.45
21276;BME280;36472;52.170;20.884;2024-03-06T04:15:37;100814.75;;;8.13;98.29
21276;BME280;36472;52.170;20.884;2024-03-06T04:18:07;100815.47;;;8.16;98.04
21276;BME280;36472;52.170;20.884;2024-03-06T04:20:37;100822.53;;;8.14;97.52
21276;BME280;36472;52.170;20.884;2024-03-06T04:23:07;100823.50;;;8.13;97.74
21276;BME280;36472;52.170;20.884;2024-03-06T04:25:37;100820.78;;;8.15;97.54
21276;BME280;36472;52.170;20.884;2024-03-06T04:28:07;100826.09;;;8.13;97.30
21276;BME280;36472;52.170;20.884;2024-03-06T04:30:36;100828.72;;;8.13;97.67
21276;BME280;36472;52.170;20.884;2024-03-06T04:33:05;100824.69;;;8.06;97.17
21276;BME280;36472;52.170;20.884;2024-03-06T04:35:34;100828.38;;;8.02;96.18
21276;BME280;36472;52.170;20.884;2024-03-06T04:38:04;100821.59;;;7.98;95.74
21276;BME280;36472;52.170;20.884;2024-03-06T04:40:34;100822.22;;;7.84;96.10
21276;BME280;36472;52.170;20.884;2024-03-06T04:43:06;100828.34;;;7.84;95.72
21276;BME280;36472;52.170;20.884;2024-03-06T04:45:35;100832.38;;;7.73;95.89
21276;BME280;36472;52.170;20.884;2024-03-06T04:48:05;100833.78;;;7.80;96.31
21276;BME280;36472;52.170;20.884;2024-03-06T04:50:34;100830.09;;;7.84;95.93
21276;BME280;36472;52.170;20.884;2024-03-06T04:53:04;100851.75;;;7.88;96.05
21276;BME280;36472;52.170;20.884;2024-03-06T04:55:34;100841.91;;;7.93;96.17
21276;BME280;36472;52.170;20.884;2024-03-06T04:58:06;100843.91;;;7.88;95.13
21276;BME280;36472;52.170;20.884;2024-03-06T05:00:36;100836.97;;;7.86;95.28
21276;BME280;36472;52.170;20.884;2024-03-06T05:03:07;100840.56;;;7.65;94.92
21276;BME280;36472;52.170;20.884;2024-03-06T05:05:54;100854.97;;;7.74;95.10
21276;BME280;36472;52.170;20.884;2024-03-06T05:08:40;100858.59;;;7.71;95.17
21276;BME280;36472;52.170;20.884;2024-03-06T05:11:26;100845.22;;;7.39;94.92
21276;BME280;36472;52.170;20.884;2024-03-06T05:14:16;100850.44;;;7.58;94.72
21276;BME280;36472;52.170;20.884;2024-03-06T05:17:04;100858.34;;;7.38;95.32
21276;BME280;36472;52.170;20.884;2024-03-06T05:24:21;100865.72;;;7.48;94.12
21276;BME280;36472;52.170;20.884;2024-03-06T05:27:09;100870.09;;;7.48;94.39
21276;BME280;36472;52.170;20.884;2024-03-06T05:29:59;100869.53;;;7.41;94.43
21276;BME280;36472;52.170;20.884;2024-03-06T05:32:45;100873.44;;;7.52;94.16
21276;BME280;36472;52.170;20.884;2024-03-06T05:35:33;100864.59;;;7.54;93.78
21276;BME280;36472;52.170;20.884;2024-03-06T05:38:19;100868.41;;;7.47;94.15
21276;BME280;36472;52.170;20.884;2024-03-06T05:41:07;100879.16;;;7.60;94.12
21276;BME280;36472;52.170;20.884;2024-03-06T05:43:53;100878.06;;;7.65;93.61
21276;BME280;36472;52.170;20.884;2024-03-06T05:46:41;100882.72;;;7.59;93.58
21276;BME280;36472;52.170;20.884;2024-03-06T05:53:59;100889.28;;;7.48;94.05
21276;BME280;36472;52.170;20.884;2024-03-06T05:56:48;100893.31;;;7.56;93.92
21276;BME280;36472;52.170;20.884;2024-03-06T05:59:36;100893.63;;;7.48;93.84
21276;BME280;36472;52.170;20.884;2024-03-06T06:02:08;100892.53;;;7.54;93.38
21276;BME280;36472;52.170;20.884;2024-03-06T06:04:38;100892.72;;;7.49;92.79
21276;BME280;36472;52.170;20.884;2024-03-06T06:07:18;100897.66;;;7.36;92.71
21276;BME280;36472;52.170;20.884;2024-03-06T06:09:47;100905.22;;;7.42;92.39
21276;BME280;36472;52.170;20.884;2024-03-06T06:12:16;100906.28;;;7.38;92.35
21276;BME280;36472;52.170;20.884;2024-03-06T06:14:45;100899.88;;;7.25;91.56
21276;BME280;36472;52.170;20.884;2024-03-06T06:17:15;100907.91;;;7.20;91.86
21276;BME280;36472;52.170;20.884;2024-03-06T06:19:45;100911.91;;;7.29;91.59
21276;BME280;36472;52.170;20.884;2024-03-06T06:22:14;100910.59;;;7.39;91.42
21276;BME280;36472;52.170;20.884;2024-03-06T06:24:44;100914.50;;;7.29;91.12
21276;BME280;36472;52.170;20.884;2024-03-06T06:27:14;100925.50;;;7.37;90.56
21276;BME280;36472;52.170;20.884;2024-03-06T06:29:43;100934.28;;;7.36;90.89
21276;BME280;36472;52.170;20.884;2024-03-06T06:32:12;100926.88;;;7.25;90.54
21276;BME280;36472;52.170;20.884;2024-03-06T06:34:43;100934.59;;;7.28;90.42
21276;BME280;36472;52.170;20.884;2024-03-06T06:37:12;100937.03;;;7.13;90.30
21276;BME280;36472;52.170;20.884;2024-03-06T06:39:42;100940.47;;;7.13;90.48
21276;BME280;36472;52.170;20.884;2024-03-06T06:42:11;100931.38;;;7.22;90.00
21276;BME280;36472;52.170;20.884;2024-03-06T06:44:41;100941.06;;;7.40;89.44
21276;BME280;36472;52.170;20.884;2024-03-06T06:47:10;100937.44;;;7.43;89.29
21276;BME280;36472;52.170;20.884;2024-03-06T06:49:39;100939.09;;;7.45;88.83
21276;BME280;36472;52.170;20.884;2024-03-06T06:52:09;100938.19;;;7.46;88.79
21276;BME280;36472;52.170;20.884;2024-03-06T06:54:38;100941.97;;;7.39;88.32
21276;BME280;36472;52.170;20.884;2024-03-06T06:57:08;100947.72;;;7.47;88.29
21276;BME280;36472;52.170;20.884;2024-03-06T06:59:37;100953.66;;;7.51;88.06
21276;BME280;36472;52.170;20.884;2024-03-06T07:06:39;100958.72;;;7.35;88.24
21276;BME280;36472;52.170;20.884;2024-03-06T07:09:09;100960.00;;;7.45;88.38
21276;BME280;36472;52.170;20.884;2024-03-06T07:11:38;100961.31;;;7.56;89.29
21276;BME280;36472;52.170;20.884;2024-03-06T07:14:08;100955.38;;;7.52;88.99
21276;BME280;36472;52.170;20.884;2024-03-06T07:16:42;100966.22;;;7.43;87.98
21276;BME280;36472;52.170;20.884;2024-03-06T07:19:11;100969.03;;;7.38;87.68
21276;BME280;36472;52.170;20.884;2024-03-06T07:21:41;100971.13;;;7.51;87.09
21276;BME280;36472;52.170;20.884;2024-03-06T07:24:11;100971.38;;;7.65;87.57
21276;BME280;36472;52.170;20.884;2024-03-06T07:26:40;100964.00;;;7.54;87.24
21276;BME280;36472;52.170;20.884;2024-03-06T07:29:09;100963.50;;;7.65;86.37
21276;BME280;36472;52.170;20.884;2024-03-06T07:31:43;100974.47;;;7.54;86.30
21276;BME280;36472;52.170;20.884;2024-03-06T07:34:12;100979.03;;;7.49;86.16
21276;BME280;36472;52.170;20.884;2024-03-06T07:36:42;100977.59;;;7.62;86.29
21276;BME280;36472;52.170;20.884;2024-03-06T07:39:15;100980.47;;;7.56;85.02
21276;BME280;36472;52.170;20.884;2024-03-06T07:41:45;100976.16;;;7.76;85.31
21276;BME280;36472;52.170;20.884;2024-03-06T07:44:14;100979.19;;;7.85;85.61
21276;BME280;36472;52.170;20.884;2024-03-06T07:46:46;100987.84;;;7.88;85.38
21276;BME280;36472;52.170;20.884;2024-03-06T07:49:16;100992.91;;;7.91;85.55
21276;BME280;36472;52.170;20.884;2024-03-06T07:51:46;100987.66;;;7.72;84.94
21276;BME280;36472;52.170;20.884;2024-03-06T07:54:18;100988.06;;;7.62;85.54
21276;BME280;36472;52.170;20.884;2024-03-06T07:56:48;100987.53;;;7.54;85.48
21276;BME280;36472;52.170;20.884;2024-03-06T07:59:16;100994.91;;;7.65;85.64
21276;BME280;36472;52.170;20.884;2024-03-06T08:01:49;100996.28;;;7.53;85.97
21276;BME280;36472;52.170;20.884;2024-03-06T08:04:18;100997.34;;;7.49;85.38
21276;BME280;36472;52.170;20.884;2024-03-06T08:06:47;101000.38;;;7.40;85.77
21276;BME280;36472;52.170;20.884;2024-03-06T08:09:20;100991.16;;;7.31;86.47
21276;BME280;36472;52.170;20.884;2024-03-06T08:11:51;101000.22;;;7.43;85.70
21276;BME280;36472;52.170;20.884;2024-03-06T08:14:22;100996.63;;;7.45;84.70
21276;BME280;36472;52.170;20.884;2024-03-06T08:16:51;101003.75;;;7.42;85.02
21276;BME280;36472;52.170;20.884;2024-03-06T08:19:20;101008.56;;;7.30;85.19
21276;BME280;36472;52.170;20.884;2024-03-06T08:21:52;101006.63;;;7.56;85.13
21276;BME280;36472;52.170;20.884;2024-03-06T08:24:23;101006.19;;;7.67;85.18
21276;BME280;36472;52.170;20.884;2024-03-06T08:31:23;101013.69;;;7.75;85.17
21276;BME280;36472;52.170;20.884;2024-03-06T08:33:53;101014.22;;;7.62;84.81
21276;BME280;36472;52.170;20.884;2024-03-06T08:36:22;101016.78;;;7.43;84.37
21276;BME280;36472;52.170;20.884;2024-03-06T08:38:52;101011.53;;;7.64;85.22
21276;BME280;36472;52.170;20.884;2024-03-06T08:41:22;101022.78;;;7.66;85.50
21276;BME280;36472;52.170;20.884;2024-03-06T08:43:51;101023.69;;;7.65;84.62
21276;BME280;36472;52.170;20.884;2024-03-06T08:46:20;101019.09;;;7.70;84.60
21276;BME280;36472;52.170;20.884;2024-03-06T08:48:49;101023.31;;;7.74;85.05
21276;BME280;36472;52.170;20.884;2024-03-06T08:51:18;101022.00;;;7.64;84.75
21276;BME280;36472;52.170;20.884;2024-03-06T08:53:49;101024.75;;;7.61;85.16
21276;BME280;36472;52.170;20.884;2024-03-06T08:56:18;101024.28;;;7.72;85.61
21276;BME280;36472;52.170;20.884;2024-03-06T08:58:49;101031.28;;;7.71;85.22
21276;BME280;36472;52.170;20.884;2024-03-06T09:01:19;101029.13;;;7.81;85.37
21276;BME280;36472;52.170;20.884;2024-03-06T09:03:48;101038.28;;;7.71;84.12
21276;BME280;36472;52.170;20.884;2024-03-06T09:06:16;101041.22;;;7.63;83.95
21276;BME280;36472;52.170;20.884;2024-03-06T09:08:46;101028.31;;;7.58;83.74
21276;BME280;36472;52.170;20.884;2024-03-06T09:11:16;101039.19;;;7.70;83.53
21276;BME280;36472;52.170;20.884;2024-03-06T09:13:49;101045.44;;;7.67;83.62
21276;BME280;36472;52.170;20.884;2024-03-06T09:16:18;101046.91;;;7.73;83.42
21276;BME280;36472;52.170;20.884;2024-03-06T09:18:47;101038.78;;;7.79;84.08
21276;BME280;36472;52.170;20.884;2024-03-06T09:21:18;101044.94;;;7.78;84.32
21276;BME280;36472;52.170;20.884;2024-03-06T09:23:47;101049.25;;;7.79;84.31
21276;BME280;36472;52.170;20.884;2024-03-06T09:26:19;101056.91;;;7.63;84.46
21276;BME280;36472;52.170;20.884;2024-03-06T09:28:49;101058.56;;;7.65;84.05
21276;BME280;36472;52.170;20.884;2024-03-06T09:31:18;101050.31;;;7.75;83.56
21276;BME280;36472;52.170;20.884;2024-03-06T09:33:47;101047.38;;;7.82;82.63
21276;BME280;36472;52.170;20.884;2024-03-06T09:36:16;101052.53;;;7.84;82.95
21276;BME280;36472;52.170;20.884;2024-03-06T09:38:45;101052.63;;;7.82;83.18
21276;BME280;36472;52.170;20.884;2024-03-06T09:41:15;101047.97;;;7.89;83.52
21276;BME280;36472;52.170;20.884;2024-03-06T09:43:46;101052.19;;;7.92;83.29
21276;BME280;36472;52.170;20.884;2024-03-06T09:46:19;101054.16;;;7.86;82.85
21276;BME280;36472;52.170;20.884;2024-03-06T09:48:51;101053.72;;;7.77;82.65
21276;BME280;36472;52.170;20.884;2024-03-06T09:51:21;101064.06;;;7.59;81.97
21276;BME280;36472;52.170;20.884;2024-03-06T09:53:51;101066.72;;;7.58;82.53
21276;BME280;36472;52.170;20.884;2024-03-06T09:56:20;101065.47;;;7.66;83.30
21276;BME280;36472;52.170;20.884;2024-03-06T09:58:50;101063.75;;;7.67;83.13
21276;BME280;36472;52.170;20.884;2024-03-06T10:01:24;101071.78;;;7.62;82.55
21276;BME280;36472;52.170;20.884;2024-03-06T10:03:54;101074.09;;;7.48;82.73
21276;BME280;36472;52.170;20.884;2024-03-06T10:06:24;101077.31;;;7.55;81.97
21276;BME280;36472;52.170;20.884;2024-03-06T10:09:03;101073.91;;;7.53;81.91
21276;BME280;36472;52.170;20.884;2024-03-06T10:11:40;101080.44;;;7.42;82.31
21276;BME280;36472;52.170;20.884;2024-03-06T10:14:10;101082.03;;;7.46;82.03
21276;BME280;36472;52.170;20.884;2024-03-06T10:16:53;101092.97;;;7.34;81.03
21276;BME280;36472;52.170;20.884;2024-03-06T10:19:25;101086.19;;;7.30;81.59
21276;BME280;36472;52.170;20.884;2024-03-06T10:21:57;101090.41;;;7.33;82.05
21276;BME280;36472;52.170;20.884;2024-03-06T10:24:28;101092.00;;;7.37;81.96
21276;BME280;36472;52.170;20.884;2024-03-06T10:26:58;101095.34;;;7.40;81.77
21276;BME280;36472;52.170;20.884;2024-03-06T10:29:29;101087.63;;;7.37;80.96
21276;BME280;36472;52.170;20.884;2024-03-06T10:32:00;101090.13;;;7.40;81.06
21276;BME280;36472;52.170;20.884;2024-03-06T10:34:29;101094.09;;;7.28;79.83
21276;BME280;36472;52.170;20.884;2024-03-06T10:37:00;101100.38;;;7.24;81.01
21276;BME280;36472;52.170;20.884;2024-03-06T10:39:33;101101.03;;;7.29;81.24
21276;BME280;36472;52.170;20.884;2024-03-06T10:42:07;101108.44;;;7.40;81.23
21276;BME280;36472;52.170;20.884;2024-03-06T10:44:47;101104.69;;;7.46;80.32
21276;BME280;36472;52.170;20.884;2024-03-06T10:47:19;101112.75;;;7.41;80.97
21276;BME280;36472;52.170;20.884;2024-03-06T10:49:50;101107.94;;;7.30;80.06
21276;BME280;36472;52.170;20.884;2024-03-06T10:52:22;101117.38;;;7.35;80.10
21276;BME280;36472;52.170;20.884;2024-03-06T10:54:52;101117.78;;;7.24;79.46
21276;BME280;36472;52.170;20.884;2024-03-06T10:57:22;101103.81;;;7.25;79.71
21276;BME280;36472;52.170;20.884;2024-03-06T10:59:53;101111.81;;;7.42;79.44
21276;BME280;36472;52.170;20.884;2024-03-06T11:02:24;101121.38;;;7.43;78.66
21276;BME280;36472;52.170;20.884;2024-03-06T11:04:56;101112.59;;;7.44;78.88
21276;BME280;36472;52.170;20.884;2024-03-06T11:07:26;101111.31;;;7.55;78.44
21276;BME280;36472;52.170;20.884;2024-03-06T11:09:58;101117.41;;;7.55;77.76
21276;BME280;36472;52.170;20.884;2024-03-06T11:12:36;101117.03;;;7.64;78.06
21276;BME280;36472;52.170;20.884;2024-03-06T11:15:10;101105.06;;;7.59;77.12
21276;BME280;36472;52.170;20.884;2024-03-06T11:17:41;101120.84;;;7.35;76.71
21276;BME280;36472;52.170;20.884;2024-03-06T11:20:17;101110.19;;;7.40;78.83
21276;BME280;36472;52.170;20.884;2024-03-06T11:23:03;101123.06;;;7.44;78.50
21276;BME280;36472;52.170;20.884;2024-03-06T11:26:01;101119.56;;;7.45;78.70
21276;BME280;36472;52.170;20.884;2024-03-06T11:28:33;101118.97;;;7.59;78.25
21276;BME280;36472;52.170;20.884;2024-03-06T11:35:35;101118.47;;;7.72;75.67
21276;BME280;36472;52.170;20.884;2024-03-06T11:38:06;101119.47;;;7.69;75.79
21276;BME280;36472;52.170;20.884;2024-03-06T11:40:43;101116.63;;;7.74;76.13
21276;BME280;36472;52.170;20.884;2024-03-06T11:43:25;101124.88;;;7.85;76.57
21276;BME280;36472;52.170;20.884;2024-03-06T11:46:07;101115.25;;;7.85;75.35
21276;BME280;36472;52.170;20.884;2024-03-06T11:48:38;101117.28;;;7.79;75.69
21276;BME280;36472;52.170;20.884;2024-03-06T11:51:10;101121.97;;;7.72;75.27
21276;BME280;36472;52.170;20.884;2024-03-06T11:53:40;101117.16;;;7.82;75.64
21276;BME280;36472;52.170;20.884;2024-03-06T11:56:12;101121.97;;;7.72;74.93
21276;BME280;36472;52.170;20.884;2024-03-06T11:58:41;101120.91;;;7.76;74.36
21276;BME280;36472;52.170;20.884;2024-03-06T12:01:14;101124.28;;;7.78;74.86
21276;BME280;36472;52.170;20.884;2024-03-06T12:03:46;101119.66;;;7.85;74.07
21276;BME280;36472;52.170;20.884;2024-03-06T12:06:17;101124.81;;;7.66;73.47
21276;BME280;36472;52.170;20.884;2024-03-06T12:08:47;101124.81;;;7.66;74.05
21276;BME280;36472;52.170;20.884;2024-03-06T12:11:16;101124.03;;;7.64;73.14
21276;BME280;36472;52.170;20.884;2024-03-06T12:13:47;101111.16;;;7.80;73.66
21276;BME280;36472;52.170;20.884;2024-03-06T12:16:17;101114.50;;;7.83;73.52
21276;BME280;36472;52.170;20.884;2024-03-06T12:18:46;101119.72;;;7.83;73.52
21276;BME280;36472;52.170;20.884;2024-03-06T12:21:15;101123.13;;;7.85;72.78
21276;BME280;36472;52.170;20.884;2024-03-06T12:23:45;101119.41;;;7.91;72.69
21276;BME280;36472;52.170;20.884;2024-03-06T12:26:14;101114.69;;;7.99;72.74
21276;BME280;36472;52.170;20.884;2024-03-06T12:28:43;101117.63;;;8.12;71.99
21276;BME280;36472;52.170;20.884;2024-03-06T12:31:12;101127.63;;;8.23;71.59
21276;BME280;36472;52.170;20.884;2024-03-06T12:33:41;101131.63;;;8.11;71.00
21276;BME280;36472;52.170;20.884;2024-03-06T12:36:10;101122.19;;;8.28;70.66
21276;BME280;36472;52.170;20.884;2024-03-06T12:38:39;101122.06;;;8.31;70.54
21276;BME280;36472;52.170;20.884;2024-03-06T12:41:10;101120.75;;;8.20;71.13
21276;BME280;36472;52.170;20.884;2024-03-06T12:43:38;101126.47;;;8.30;69.81
21276;BME280;36472;52.170;20.884;2024-03-06T12:46:10;101127.09;;;8.35;68.95
21276;BME280;36472;52.170;20.884;2024-03-06T12:48:39;101121.78;;;8.37;68.66
21276;BME280;36472;52.170;20.884;2024-03-06T12:51:08;101122.19;;;8.48;68.77
21276;BME280;36472;52.170;20.884;2024-03-06T12:53:39;101127.66;;;8.42;66.98
21276;BME280;36472;52.170;20.884;2024-03-06T12:56:16;101125.03;;;8.42;64.26
21276;BME280;36472;52.170;20.884;2024-03-06T12:58:45;101130.28;;;8.42;65.65
21276;BME280;36472;52.170;20.884;2024-03-06T13:01:14;101129.25;;;8.46;61.65
21276;BME280;36472;52.170;20.884;2024-03-06T13:03:43;101130.44;;;8.39;61.14
21276;BME280;36472;52.170;20.884;2024-03-06T13:06:13;101131.03;;;8.46;61.37
21276;BME280;36472;52.170;20.884;2024-03-06T13:08:41;101124.31;;;8.38;59.67
21276;BME280;36472;52.170;20.884;2024-03-06T13:11:11;101133.91;;;8.39;58.45
21276;BME280;36472;52.170;20.884;2024-03-06T13:13:41;101132.25;;;8.37;58.29
21276;BME280;36472;52.170;20.884;2024-03-06T13:16:10;101141.75;;;8.39;57.59
21276;BME280;36472;52.170;20.884;2024-03-06T13:18:41;101142.56;;;8.21;57.75
21276;BME280;36472;52.170;20.884;2024-03-06T13:21:09;101134.38;;;8.29;58.60
21276;BME280;36472;52.170;20.884;2024-03-06T13:23:38;101140.53;;;8.28;60.09
21276;BME280;36472;52.170;20.884;2024-03-06T13:30:41;101147.59;;;8.46;59.63
21276;BME280;36472;52.170;20.884;2024-03-06T13:33:11;101145.56;;;8.53;61.24
21276;BME280;36472;52.170;20.884;2024-03-06T13:35:40;101147.25;;;8.54;61.13
21276;BME280;36472;52.170;20.884;2024-03-06T13:38:10;101141.59;;;8.44;61.68
21276;BME280;36472;52.170;20.884;2024-03-06T13:40:39;101144.44;;;8.38;60.90